Terminal Aerodrome Forecast
Issued by NWS Twin Cities, MN

Home | Current Version | Previous Version | Graphics & Text | Print | Product List | Glossary On
Versions: 1 2 3 4 5 6 7 8 9 10 11 12 13 14 15 16 17 18 19 20 21 22 23 24 25 26 27
000
FTUS43 KMPX 041450 AAA
TAFMSP
TAF AMD
KMSP 041450Z 0415/0518 16004KT 6SM HZ FEW050 BKN250
     FM041700 18008KT P6SM SCT050 BKN250
     FM050300 17008KT P6SM FEW250=

USA.gov is the U.S. government's official web portal to all federal, state and local government web resources and services.